createdAt,value
2018-03-22T03:04:18.050Z,8.73
2018-03-22T03:19:04.006Z,9.45
2018-03-22T05:49:06.786Z,8.20
2018-03-22T06:26:05.786Z,8.10
2018-03-22T06:28:33.865Z,8.17
2018-03-22T06:31:02.485Z,7.93
2018-03-22T06:33:30.406Z,8.00
2018-03-22T06:35:58.285Z,8.25
2018-03-22T07:06:31.027Z,9.00
2018-03-22T07:13:54.074Z,8.43
2018-03-22T07:16:24.085Z,9.97
2018-03-22T07:21:19.266Z,8.13
2018-03-22T07:23:47.086Z,9.10
2018-03-22T07:26:15.000Z,9.40
2018-03-22T07:28:43.668Z,9.07
2018-03-22T07:31:11.725Z,10.07
2018-03-22T07:33:40.326Z,9.53
2018-03-22T07:36:08.166Z,9.30
2018-03-22T08:45:08.267Z,10.13
2018-03-22T09:58:59.630Z,11.13
2018-03-22T10:01:28.146Z,12.17
2018-03-22T10:03:56.046Z,12.03
2018-03-22T10:06:24.707Z,11.40
2018-03-22T10:08:52.447Z,11.97
2018-03-22T10:11:20.546Z,12.00
2018-03-22T10:13:48.456Z,12.23
2018-03-22T10:16:16.307Z,10.63
2018-03-22T10:18:44.227Z,11.43
2018-03-22T10:21:12.186Z,11.47
2018-03-22T10:23:40.046Z,11.23
2018-03-22T10:26:08.086Z,12.10
2018-03-22T10:28:35.886Z,11.30
2018-03-22T10:31:03.633Z,12.03
2018-03-22T10:33:31.615Z,11.97
2018-03-22T10:35:59.325Z,11.73
2018-03-22T10:38:28.377Z,12.07
2018-03-22T10:40:56.927Z,12.00
2018-03-22T10:43:24.868Z,11.87
2018-03-22T10:45:53.014Z,11.97
2018-03-22T10:48:21.798Z,11.83
2018-03-22T10:53:23.488Z,11.23
2018-03-22T11:00:52.816Z,11.37
2018-03-22T11:03:26.318Z,11.83
2018-03-22T11:05:54.227Z,11.75
2018-03-22T11:08:22.067Z,12.57
2018-03-22T11:23:08.236Z,11.67
2018-03-22T11:25:36.106Z,11.23
2018-03-22T11:28:03.968Z,11.13
2018-03-22T11:30:32.194Z,12.00
2018-03-22T11:35:32.148Z,10.10
2018-03-22T11:38:00.075Z,11.57
2018-03-22T11:40:28.127Z,10.45
2018-03-22T11:42:56.067Z,10.90
2018-03-22T11:57:41.088Z,9.45
2018-03-22T12:00:08.927Z,10.67
2018-03-22T12:09:59.807Z,11.30
2018-03-22T12:29:40.125Z,10.80
2018-03-22T12:32:08.166Z,10.23
2018-03-22T13:09:01.068Z,12.10
2018-03-22T13:11:29.258Z,11.03
2018-03-22T13:31:09.367Z,10.53
2018-03-22T13:33:37.247Z,10.80
2018-03-22T14:08:06.896Z,10.55
2018-03-22T14:10:34.711Z,11.05
2018-03-22T14:13:02.691Z,10.30
2018-03-22T14:40:41.835Z,10.45
2018-03-22T15:34:48.589Z,10.40
2018-03-22T15:39:44.026Z,10.83
2018-03-22T15:42:11.946Z,11.10
2018-03-22T16:06:54.574Z,12.00
2018-03-22T16:09:22.765Z,11.50
2018-03-22T16:11:50.825Z,16.17
2018-03-22T16:14:18.806Z,12.20
2018-03-22T16:16:46.906Z,11.83
2018-03-22T17:03:34.107Z,12.70
2018-03-22T17:13:25.112Z,11.90
2018-03-22T17:15:53.251Z,12.10
2018-03-22T17:18:21.152Z,12.17
2018-03-22T17:20:49.111Z,11.27
2018-03-22T17:23:17.050Z,11.83
2018-03-22T17:25:44.868Z,11.47
2018-03-22T17:28:13.067Z,12.10
2018-03-22T17:30:40.968Z,12.67
2018-03-22T17:33:08.890Z,11.70
2018-03-22T18:19:58.688Z,12.70
